createdAt,value
2022-09-09T00:02:11.619Z,2.07
2022-09-09T00:04:46.366Z,2.13
2022-09-09T00:07:39.380Z,1.97
2022-09-09T00:10:13.902Z,2.27
2022-09-09T00:13:15.131Z,2.10
2022-09-09T00:16:13.463Z,2.10
2022-09-09T00:19:02.534Z,1.90
2022-09-09T00:21:48.512Z,2.30
2022-09-09T00:24:33.053Z,1.83
2022-09-09T00:27:16.195Z,2.27
2022-09-09T00:29:57.926Z,2.13
2022-09-09T00:32:31.907Z,2.30
2022-09-09T00:35:28.219Z,2.00
2022-09-09T00:38:11.605Z,2.03
2022-09-09T00:40:53.814Z,1.80
2022-09-09T00:43:31.024Z,2.87
2022-09-09T00:46:28.193Z,2.27
2022-09-09T00:49:29.239Z,2.00
2022-09-09T00:52:32.945Z,2.00
2022-09-09T00:55:33.271Z,2.57
2022-09-09T00:58:09.650Z,1.67
2022-09-09T01:00:46.130Z,2.10
2022-09-09T01:03:37.045Z,1.90
2022-09-09T01:06:43.790Z,2.10
2022-09-09T01:09:47.621Z,2.27
2022-09-09T01:12:44.599Z,2.93
2022-09-09T01:15:25.699Z,2.20
2022-09-09T01:18:03.335Z,2.50
2022-09-09T01:20:52.999Z,2.30
2022-09-09T01:23:43.278Z,2.53
2022-09-09T01:26:33.698Z,1.90
2022-09-09T01:29:10.775Z,2.07
2022-09-09T01:31:55.040Z,2.30
2022-09-09T01:34:32.330Z,2.37
2022-09-09T01:37:08.572Z,2.33
2022-09-09T01:39:43.533Z,2.77
2022-09-09T01:42:17.535Z,2.20
2022-09-09T01:44:49.178Z,2.20
2022-09-09T01:47:21.078Z,2.15
2022-09-09T01:49:52.822Z,2.40
2022-09-09T01:52:24.606Z,2.23
2022-09-09T01:54:56.684Z,2.70
2022-09-09T01:57:51.090Z,2.27
2022-09-09T02:00:22.980Z,2.27
2022-09-09T02:03:01.959Z,2.10
2022-09-09T02:05:52.724Z,2.43
2022-09-09T02:08:27.126Z,2.60
2022-09-09T02:11:31.361Z,1.77
2022-09-09T02:14:17.303Z,2.40
2022-09-09T02:16:53.417Z,2.33
2022-09-09T02:19:31.692Z,2.57
2022-09-09T02:22:04.517Z,2.53
2022-09-09T02:24:38.391Z,2.50
2022-09-09T02:27:11.644Z,2.37
2022-09-09T02:29:46.438Z,2.33
2022-09-09T02:32:24.761Z,3.57
2022-09-09T02:35:01.414Z,2.80
2022-09-09T02:37:37.513Z,2.20
2022-09-09T02:40:12.991Z,2.20
2022-09-09T02:42:47.092Z,2.33
2022-09-09T02:45:26.983Z,1.90
2022-09-09T02:48:27.462Z,2.77
2022-09-09T02:51:11.448Z,2.33
2022-09-09T02:53:55.924Z,2.90
2022-09-09T02:56:34.734Z,2.37
2022-09-09T02:59:06.986Z,2.20
2022-09-09T03:01:41.070Z,2.60
2022-09-09T03:04:12.826Z,2.57
2022-09-09T03:06:45.203Z,2.80
2022-09-09T03:09:16.906Z,2.33
2022-09-09T03:11:48.676Z,2.30
2022-09-09T03:14:22.213Z,2.30
2022-09-09T03:16:55.227Z,2.10
2022-09-09T03:19:26.999Z,2.20
2022-09-09T03:21:59.261Z,2.90
2022-09-09T03:24:31.312Z,2.70
2022-09-09T03:27:03.095Z,2.70
2022-09-09T03:29:35.246Z,2.70
2022-09-09T03:32:07.047Z,2.30
2022-09-09T03:34:41.630Z,2.80
2022-09-09T03:37:13.411Z,2.07
2022-09-09T03:39:45.771Z,2.40
2022-09-09T03:42:20.235Z,2.50
2022-09-09T03:44:52.307Z,2.10
2022-09-09T03:47:24.004Z,2.90
2022-09-09T03:49:55.785Z,2.57
2022-09-09T03:52:27.795Z,2.10
2022-09-09T03:54:59.507Z,2.23
2022-09-09T03:57:31.150Z,3.17
2022-09-09T04:00:07.603Z,2.90
2022-09-09T04:02:40.256Z,2.80
2022-09-09T04:05:12.329Z,2.80
2022-09-09T04:07:44.051Z,2.30
2022-09-09T04:10:16.771Z,2.30
2022-09-09T04:12:49.584Z,2.40
2022-09-09T04:15:22.191Z,2.27
2022-09-09T04:17:53.839Z,2.10
2022-09-09T04:20:25.567Z,2.03
2022-09-09T04:22:57.225Z,2.40
2022-09-09T04:25:29.170Z,2.10
2022-09-09T04:28:01.194Z,2.60
2022-09-09T04:30:32.931Z,2.60
2022-09-09T04:33:04.710Z,2.50
2022-09-09T04:35:37.111Z,1.92
2022-09-09T04:38:10.321Z,2.93
2022-09-09T04:40:48.530Z,3.07
2022-09-09T04:43:21.527Z,2.60
2022-09-09T04:45:53.609Z,2.47
2022-09-09T04:48:26.246Z,2.80
2022-09-09T04:51:04.850Z,2.70
2022-09-09T04:53:36.727Z,2.80
2022-09-09T04:56:16.675Z,3.37
2022-09-09T04:58:48.983Z,3.00
2022-09-09T05:01:22.988Z,3.00
2022-09-09T05:03:56.439Z,2.47
2022-09-09T05:06:28.140Z,3.13
2022-09-09T05:08:59.972Z,2.90
2022-09-09T05:11:35.032Z,3.00
2022-09-09T05:14:06.755Z,3.20
2022-09-09T05:16:38.608Z,2.17
2022-09-09T05:19:10.377Z,2.50
2022-09-09T05:21:42.607Z,2.83
2022-09-09T05:24:14.281Z,2.70
2022-09-09T05:26:46.010Z,2.80
2022-09-09T05:29:19.967Z,3.30
2022-09-09T05:31:51.736Z,2.90
2022-09-09T05:34:23.518Z,3.10
2022-09-09T05:36:55.330Z,3.00
2022-09-09T05:39:26.998Z,3.03
2022-09-09T05:41:58.659Z,3.00
2022-09-09T05:44:30.322Z,3.00
2022-09-09T05:47:02.083Z,2.30
2022-09-09T05:49:33.774Z,2.60
2022-09-09T05:52:05.407Z,2.50
2022-09-09T05:54:38.509Z,3.13
2022-09-09T05:57:10.239Z,3.00
2022-09-09T05:59:41.947Z,2.97
2022-09-09T06:02:14.441Z,2.93
2022-09-09T06:04:46.408Z,3.20
2022-09-09T06:07:18.574Z,3.10
2022-09-09T06:09:51.231Z,3.50
2022-09-09T06:12:22.972Z,3.87
2022-09-09T06:14:54.699Z,3.10
2022-09-09T06:17:26.367Z,2.90
2022-09-09T06:19:58.070Z,2.40
2022-09-09T06:22:29.825Z,3.33
2022-09-09T06:25:02.124Z,2.70
2022-09-09T06:27:33.807Z,2.22
2022-09-09T06:30:05.887Z,2.50
2022-09-09T06:32:38.812Z,2.43
2022-09-09T06:35:11.767Z,3.23
2022-09-09T06:37:46.446Z,2.63
2022-09-09T06:40:18.447Z,2.50
2022-09-09T06:42:50.155Z,2.60
2022-09-09T06:45:21.871Z,2.40
2022-09-09T06:47:56.123Z,2.20
2022-09-09T06:50:27.835Z,2.37
2022-09-09T06:52:59.484Z,2.30
2022-09-09T06:55:31.152Z,2.40
2022-09-09T06:58:03.553Z,2.30
2022-09-09T07:00:35.437Z,2.93
2022-09-09T07:03:07.146Z,2.37
2022-09-09T07:05:38.806Z,2.17
2022-09-09T07:08:11.472Z,2.03
2022-09-09T07:10:44.417Z,2.43
2022-09-09T07:13:16.574Z,2.30
2022-09-09T07:15:48.437Z,2.33
2022-09-09T07:18:21.457Z,2.97
2022-09-09T07:20:58.502Z,3.03
2022-09-09T07:23:35.552Z,2.22
2022-09-09T07:26:13.117Z,2.40
2022-09-09T07:28:46.322Z,2.30
2022-09-09T07:31:21.391Z,2.10
2022-09-09T07:33:53.328Z,2.00
2022-09-09T07:36:31.215Z,2.10
2022-09-09T07:39:08.071Z,2.10
2022-09-09T07:41:45.624Z,2.17
2022-09-09T07:44:22.221Z,2.93
2022-09-09T07:46:54.197Z,2.13
2022-09-09T07:49:30.986Z,2.00
2022-09-09T07:52:04.544Z,2.33
2022-09-09T07:54:36.460Z,2.50
2022-09-09T07:57:08.231Z,2.40
2022-09-09T07:59:39.920Z,2.63
2022-09-09T08:02:11.987Z,2.17
2022-09-09T08:04:43.669Z,2.43
2022-09-09T08:07:15.454Z,2.20
2022-09-09T08:09:47.595Z,2.30
2022-09-09T08:12:19.407Z,3.13
2022-09-09T08:14:52.446Z,2.10
2022-09-09T08:17:24.251Z,2.40
2022-09-09T08:19:55.904Z,2.47
2022-09-09T08:22:28.149Z,2.60
2022-09-09T08:24:59.831Z,2.10
2022-09-09T08:27:33.171Z,2.20
2022-09-09T08:30:05.538Z,2.33
2022-09-09T08:32:38.297Z,2.43
2022-09-09T08:35:11.583Z,2.37
2022-09-09T08:37:43.604Z,2.03
2022-09-09T08:40:23.596Z,2.63
2022-09-09T08:42:58.066Z,1.90
2022-09-09T08:45:36.485Z,2.13
2022-09-09T08:48:08.185Z,2.50
2022-09-09T08:50:42.114Z,1.87
2022-09-09T08:53:28.057Z,2.13
2022-09-09T08:56:04.468Z,2.40
2022-09-09T08:58:39.466Z,2.20
2022-09-09T09:01:23.748Z,1.70
2022-09-09T09:04:07.888Z,3.07
2022-09-09T09:06:51.706Z,2.30
2022-09-09T09:09:46.230Z,2.00
2022-09-09T09:12:22.599Z,3.90
2022-09-09T09:14:56.441Z,2.90
2022-09-09T09:17:32.346Z,3.30
2022-09-09T09:20:06.968Z,2.40
2022-09-09T09:22:51.715Z,2.30
2022-09-09T09:25:36.514Z,2.17
2022-09-09T09:28:18.867Z,1.80
2022-09-09T09:30:59.219Z,2.00
2022-09-09T09:34:00.251Z,1.77
2022-09-09T09:36:47.978Z,2.03
2022-09-09T09:42:24.126Z,1.70
2022-09-09T09:44:55.819Z,2.27
2022-09-09T09:47:27.974Z,1.50
2022-09-09T09:50:03.637Z,1.70
2022-09-09T09:52:37.668Z,1.67
2022-09-09T09:55:15.339Z,1.98
2022-09-09T09:57:47.142Z,1.58
2022-09-09T10:00:22.106Z,1.67
2022-09-09T10:02:54.248Z,1.63
2022-09-09T10:05:31.569Z,2.28
2022-09-09T10:08:13.014Z,2.08
2022-09-09T10:10:59.715Z,1.88
2022-09-09T10:13:56.570Z,1.48
2022-09-09T10:16:39.006Z,2.60
2022-09-09T10:19:16.034Z,2.30
2022-09-09T10:22:03.181Z,2.15
2022-09-09T10:25:07.147Z,1.73
2022-09-09T10:28:13.514Z,2.33
2022-09-09T10:30:54.182Z,2.00
2022-09-09T10:33:50.262Z,2.13
2022-09-09T10:36:29.383Z,1.67
2022-09-09T10:39:05.151Z,1.95
2022-09-09T10:41:52.385Z,1.80
2022-09-09T10:44:49.384Z,2.20
2022-09-09T10:47:36.898Z,1.70
2022-09-09T10:50:57.201Z,1.65
2022-09-09T10:53:42.320Z,2.20
2022-09-09T10:56:18.966Z,2.60
2022-09-09T10:58:54.688Z,1.90
2022-09-09T11:01:41.256Z,1.90
2022-09-09T11:04:26.742Z,1.77
2022-09-09T11:07:07.433Z,1.60
2022-09-09T11:09:49.451Z,1.97
2022-09-09T11:12:21.397Z,2.20
2022-09-09T11:15:02.572Z,2.33
2022-09-09T11:17:57.665Z,2.73
2022-09-09T11:20:29.372Z,2.77
2022-09-09T11:23:10.955Z,1.40
2022-09-09T11:25:53.433Z,1.70
2022-09-09T11:28:50.172Z,1.50
2022-09-09T11:31:37.938Z,1.40
2022-09-09T11:34:34.443Z,1.47
2022-09-09T11:37:24.763Z,1.47
2022-09-09T11:40:10.887Z,1.07
2022-09-09T11:42:43.099Z,0.97
2022-09-09T11:45:30.225Z,1.10
2022-09-09T11:48:03.095Z,1.00
2022-09-09T11:50:38.844Z,1.00
2022-09-09T11:53:13.883Z,1.00
2022-09-09T11:55:45.649Z,0.90
2022-09-09T11:58:19.383Z,0.80
2022-09-09T12:00:51.357Z,0.90
2022-09-09T12:03:47.224Z,1.10
2022-09-09T12:06:51.813Z,1.00
2022-09-09T12:09:26.301Z,1.10
2022-09-09T12:12:13.316Z,1.03
2022-09-09T12:15:02.156Z,1.10
2022-09-09T12:17:43.669Z,0.90
2022-09-09T12:20:24.668Z,1.20
2022-09-09T12:23:24.547Z,1.10
2022-09-09T12:26:24.443Z,1.67
2022-09-09T12:29:13.480Z,1.20
2022-09-09T12:31:53.620Z,1.73
2022-09-09T12:34:28.822Z,1.50
2022-09-09T12:37:29.131Z,1.63
2022-09-09T12:40:04.792Z,1.60
2022-09-09T12:42:41.646Z,1.40
2022-09-09T12:45:22.072Z,1.30
2022-09-09T12:48:16.488Z,1.53
2022-09-09T12:50:53.523Z,1.30
2022-09-09T12:53:35.223Z,1.40
2022-09-09T12:56:10.044Z,2.40
2022-09-09T12:58:48.624Z,1.93
2022-09-09T13:01:32.219Z,1.50
2022-09-09T13:04:04.165Z,2.40
2022-09-09T13:06:36.391Z,1.30
2022-09-09T13:09:11.043Z,1.37
2022-09-09T13:11:48.225Z,1.70
2022-09-09T13:14:40.523Z,1.70
2022-09-09T13:17:28.120Z,1.23
2022-09-09T13:19:59.848Z,1.70
2022-09-09T13:22:39.950Z,1.30
2022-09-09T13:25:12.447Z,0.87
2022-09-09T13:28:00.558Z,1.00
2022-09-09T13:30:42.002Z,1.80
2022-09-09T13:33:13.888Z,1.17
2022-09-09T13:35:55.259Z,2.07
2022-09-09T13:38:29.903Z,1.30
2022-09-09T13:41:05.407Z,1.73
2022-09-09T13:43:48.326Z,1.10
2022-09-09T13:46:43.827Z,1.50
2022-09-09T13:49:15.501Z,1.63
2022-09-09T13:51:49.964Z,1.00
2022-09-09T13:54:22.147Z,1.20
2022-09-09T13:56:54.834Z,1.20
2022-09-09T13:59:42.503Z,1.80
2022-09-09T14:02:19.309Z,1.27
2022-09-09T14:04:55.787Z,0.80
2022-09-09T14:07:28.064Z,1.20
2022-09-09T14:10:01.068Z,1.00
2022-09-09T14:12:32.775Z,0.97
2022-09-09T14:15:05.850Z,1.30
2022-09-09T14:17:37.520Z,1.40
2022-09-09T14:20:10.919Z,0.97
2022-09-09T14:22:43.009Z,1.57
2022-09-09T14:25:14.991Z,0.90
2022-09-09T14:27:47.064Z,0.60
2022-09-09T14:30:18.791Z,0.70
2022-09-09T14:32:50.484Z,1.00
2022-09-09T14:35:23.183Z,1.00
2022-09-09T14:37:56.040Z,0.93
2022-09-09T14:40:28.042Z,1.17
2022-09-09T14:43:00.187Z,1.10
2022-09-09T14:45:32.239Z,1.40
2022-09-09T14:48:04.627Z,1.00
2022-09-09T14:50:40.853Z,1.53
2022-09-09T14:53:13.614Z,0.90
2022-09-09T14:55:46.915Z,1.10
2022-09-09T14:58:18.575Z,1.30
2022-09-09T15:00:50.243Z,1.07
2022-09-09T15:03:24.084Z,1.13
2022-09-09T15:05:55.754Z,1.13
2022-09-09T15:08:27.631Z,1.10
2022-09-09T15:11:08.468Z,1.17
2022-09-09T15:13:42.375Z,1.20
2022-09-09T15:16:15.823Z,1.20
2022-09-09T15:18:51.389Z,1.10
2022-09-09T15:21:25.749Z,1.27
2022-09-09T15:23:58.282Z,1.23
2022-09-09T15:26:31.078Z,1.30
2022-09-09T15:29:02.866Z,1.00
2022-09-09T15:31:34.914Z,1.30
2022-09-09T15:34:08.441Z,1.73
2022-09-09T15:36:42.823Z,1.10
2022-09-09T15:39:17.265Z,1.00
2022-09-09T15:41:49.630Z,0.97
2022-09-09T15:44:21.340Z,1.00
2022-09-09T15:46:56.783Z,1.00
2022-09-09T15:49:28.435Z,1.40
2022-09-09T15:52:04.353Z,1.30
2022-09-09T15:54:40.106Z,1.20
2022-09-09T15:57:13.835Z,1.30
2022-09-09T15:59:46.142Z,1.10
2022-09-09T16:02:19.122Z,1.30
2022-09-09T16:04:50.884Z,1.30
2022-09-09T16:07:22.526Z,1.20
2022-09-09T16:09:54.947Z,1.10
2022-09-09T16:12:27.430Z,1.30
2022-09-09T16:15:00.091Z,1.10
2022-09-09T16:17:38.185Z,1.17
2022-09-09T16:20:10.259Z,1.40
2022-09-09T16:22:43.102Z,1.20
2022-09-09T16:25:15.531Z,0.80
2022-09-09T16:27:47.492Z,0.90
2022-09-09T16:30:19.143Z,1.00
2022-09-09T16:32:50.806Z,1.07
2022-09-09T16:35:23.091Z,1.03
2022-09-09T16:37:54.807Z,1.10
2022-09-09T16:40:26.989Z,1.00
2022-09-09T16:42:58.849Z,0.90
2022-09-09T16:45:31.056Z,1.33
2022-09-09T16:48:02.854Z,1.00
2022-09-09T16:50:34.534Z,0.80
2022-09-09T16:53:10.556Z,0.90
2022-09-09T16:55:43.411Z,0.87
2022-09-09T16:58:15.398Z,1.00
2022-09-09T17:00:48.641Z,0.90
2022-09-09T17:03:21.827Z,0.90
2022-09-09T17:05:53.493Z,0.80
2022-09-09T17:08:25.626Z,1.20
2022-09-09T17:10:58.543Z,0.90
2022-09-09T17:13:31.137Z,1.57
2022-09-09T17:16:05.707Z,1.00
2022-09-09T17:18:38.055Z,1.27
2022-09-09T17:21:14.026Z,1.10
2022-09-09T17:23:46.375Z,1.00
2022-09-09T17:26:20.339Z,1.17
2022-09-09T17:28:56.183Z,0.97
2022-09-09T17:31:31.091Z,1.20
2022-09-09T17:34:02.876Z,0.85
2022-09-09T17:36:35.738Z,1.00
2022-09-09T17:39:07.579Z,1.10
2022-09-09T17:41:40.795Z,0.90
2022-09-09T17:44:12.491Z,1.83
2022-09-09T17:46:46.229Z,1.37
2022-09-09T17:49:18.490Z,1.00
2022-09-09T17:51:50.174Z,1.20
2022-09-09T17:54:22.096Z,2.63
2022-09-09T17:56:53.967Z,1.30
2022-09-09T17:59:26.495Z,1.33
2022-09-09T18:01:58.294Z,1.20
2022-09-09T18:04:30.098Z,1.10
2022-09-09T18:07:02.099Z,1.10
2022-09-09T18:09:34.665Z,1.40
2022-09-09T18:12:07.664Z,1.50
2022-09-09T18:14:39.418Z,0.90
2022-09-09T18:17:11.426Z,1.23
2022-09-09T18:19:43.064Z,1.10
2022-09-09T18:22:14.793Z,1.50
2022-09-09T18:24:48.331Z,0.95
2022-09-09T18:27:20.379Z,1.60
2022-09-09T18:29:52.110Z,1.43
2022-09-09T18:32:23.967Z,1.10
2022-09-09T18:34:59.073Z,1.43
2022-09-09T18:37:34.020Z,1.23
2022-09-09T18:40:06.179Z,1.30
2022-09-09T18:42:37.903Z,1.40
2022-09-09T18:45:09.671Z,1.70
2022-09-09T18:47:42.447Z,1.70
2022-09-09T18:50:14.243Z,1.63
2022-09-09T18:52:46.920Z,2.10
2022-09-09T18:55:18.715Z,1.30
2022-09-09T18:57:50.717Z,1.70
2022-09-09T19:00:22.392Z,1.70
2022-09-09T19:02:54.127Z,1.73
2022-09-09T19:05:25.822Z,1.10
2022-09-09T19:07:57.483Z,1.67
2022-09-09T19:10:30.621Z,1.70
2022-09-09T19:13:02.453Z,1.43
2022-09-09T19:15:37.505Z,1.50
2022-09-09T19:18:09.466Z,1.77
2022-09-09T19:20:41.379Z,1.60
2022-09-09T19:23:13.018Z,1.60
2022-09-09T19:25:45.445Z,1.60
2022-09-09T19:28:17.104Z,1.40
2022-09-09T19:30:49.749Z,2.67
2022-09-09T19:33:21.419Z,1.53
2022-09-09T19:36:02.207Z,1.20
2022-09-09T19:38:35.460Z,2.00
2022-09-09T19:41:10.098Z,2.00
2022-09-09T19:43:42.090Z,1.73
2022-09-09T19:46:15.755Z,2.27
2022-09-09T19:48:47.760Z,2.40
2022-09-09T19:51:21.704Z,2.10
2022-09-09T19:53:57.698Z,1.60
2022-09-09T19:56:30.488Z,1.90
2022-09-09T19:59:02.938Z,1.83
2022-09-09T20:01:41.032Z,1.80
2022-09-09T20:04:14.490Z,1.70
2022-09-09T20:06:46.471Z,1.17
2022-09-09T20:09:19.501Z,1.40
2022-09-09T20:11:51.215Z,1.40
2022-09-09T20:14:22.884Z,1.40
2022-09-09T20:16:54.642Z,1.50
2022-09-09T20:19:26.292Z,1.67
2022-09-09T20:21:58.931Z,1.60
2022-09-09T20:24:30.585Z,1.47
2022-09-09T20:27:02.249Z,1.70
2022-09-09T20:29:33.972Z,1.83
2022-09-09T20:32:05.880Z,1.90
2022-09-09T20:34:37.882Z,1.70
2022-09-09T20:37:09.927Z,1.63
2022-09-09T20:39:41.659Z,2.20
2022-09-09T20:42:13.343Z,1.67
2022-09-09T20:44:45.024Z,1.43
2022-09-09T20:47:16.687Z,1.10
2022-09-09T20:49:48.347Z,1.70
2022-09-09T20:52:20.351Z,1.60
2022-09-09T20:54:53.723Z,1.93
2022-09-09T20:57:25.494Z,2.27
2022-09-09T20:59:57.188Z,1.77
2022-09-09T21:02:29.024Z,1.90
2022-09-09T21:05:01.552Z,1.90
2022-09-09T21:07:33.190Z,2.23
2022-09-09T21:10:05.362Z,1.93
2022-09-09T21:12:37.127Z,1.70
2022-09-09T21:15:09.090Z,1.90
2022-09-09T21:17:40.747Z,1.60
2022-09-09T21:20:12.413Z,2.30
2022-09-09T21:22:44.226Z,1.93
2022-09-09T21:25:15.973Z,1.50
2022-09-09T21:27:47.635Z,2.10
2022-09-09T21:30:19.338Z,2.70
2022-09-09T21:32:51.119Z,2.40
2022-09-09T21:35:22.863Z,2.27
2022-09-09T21:37:54.674Z,2.73
2022-09-09T21:40:26.494Z,2.20
2022-09-09T21:42:59.471Z,2.10
2022-09-09T21:45:34.395Z,2.33
2022-09-09T21:48:07.631Z,1.60
2022-09-09T21:50:40.078Z,1.50
2022-09-09T21:53:13.072Z,1.70
2022-09-09T21:55:47.659Z,1.80
2022-09-09T21:58:19.394Z,1.70
2022-09-09T22:00:51.077Z,1.53
2022-09-09T22:03:23.667Z,4.23
2022-09-09T22:05:55.334Z,1.57
2022-09-09T22:08:26.995Z,1.70
2022-09-09T22:11:07.539Z,1.70
2022-09-09T22:13:39.215Z,1.70
2022-09-09T22:16:13.723Z,2.07
2022-09-09T22:18:50.436Z,1.50
2022-09-09T22:21:22.734Z,2.03
2022-09-09T22:23:57.147Z,2.47
2022-09-09T22:26:31.702Z,1.97
2022-09-09T22:29:05.335Z,1.90
2022-09-09T22:31:37.048Z,1.80
2022-09-09T22:34:08.786Z,2.00
2022-09-09T22:36:40.855Z,2.00
2022-09-09T22:39:12.612Z,1.83
2022-09-09T22:41:44.896Z,1.93
2022-09-09T22:44:16.763Z,1.90
2022-09-09T22:46:48.765Z,1.80
2022-09-09T22:49:20.432Z,1.67
2022-09-09T22:51:52.443Z,2.20
2022-09-09T22:54:24.255Z,2.00
2022-09-09T22:56:55.953Z,2.10
2022-09-09T22:59:28.035Z,2.40
2022-09-09T23:01:59.908Z,2.00
2022-09-09T23:04:31.707Z,2.07
2022-09-09T23:07:03.439Z,1.80
2022-09-09T23:09:35.210Z,2.50
2022-09-09T23:12:09.500Z,2.07
2022-09-09T23:14:41.318Z,1.93
2022-09-09T23:17:16.025Z,2.10
2022-09-09T23:19:52.114Z,2.60
2022-09-09T23:22:24.438Z,2.30
2022-09-09T23:24:57.770Z,2.30
2022-09-09T23:27:29.901Z,2.13
2022-09-09T23:30:01.617Z,2.10
2022-09-09T23:32:33.930Z,2.20
2022-09-09T23:35:07.493Z,2.50
2022-09-09T23:37:39.199Z,3.23
2022-09-09T23:40:11.044Z,2.23
2022-09-09T23:42:42.772Z,2.30
2022-09-09T23:45:14.974Z,1.80
2022-09-09T23:47:46.807Z,2.30
2022-09-09T23:50:19.018Z,2.30
2022-09-09T23:52:51.382Z,1.67
2022-09-09T23:55:23.780Z,1.43
2022-09-09T23:57:56.396Z,1.23
